Time;durP1;ratioP1;P1;durP2;ratioP2;P2;SDS_P1;SDS_P2;PMS_P1;PMS_P2;Temp;Humidity;BMP_temperature;BMP_pressure;BME280_temperature;BME280_humidity;BME280_pressure;Samples;Min_cycle;Max_cycle;Signal;HPM_P1;HPM_P2
2022/09/06 00:03:11;;;;;;;10.20;7.00;;;;;18.10;96628.00;;;;8440916;28;20279;-71
2022/09/06 00:07:22;;;;;;;8.32;7.05;;;;;18.10;96628.00;;;;8421725;28;20268;-72
2022/09/06 00:11:59;;;;;;;10.15;7.47;;;;;18.10;96639.00;;;;8423154;28;20290;-71
2022/09/06 00:16:16;;;;;;;10.43;7.70;;;;;18.00;96629.00;;;;8425713;28;20337;-71
2022/09/06 00:20:41;;;;;;;9.25;7.78;;;;;18.00;96644.00;;;;8431430;28;20298;-71
2022/09/06 00:24:45;;;;;;;13.82;8.45;;;;;18.00;96645.00;;;;8414439;28;20222;-72
2022/09/06 00:29:19;;;;;;;10.73;8.27;;;;;18.00;96648.00;;;;8410317;28;20219;-71
2022/09/06 00:33:23;;;;;;;11.48;8.38;;;;;17.90;96649.00;;;;8411455;28;20294;-71
2022/09/06 00:37:26;;;;;;;10.38;8.32;;;;;17.80;96640.00;;;;8413626;28;20223;-71
2022/09/06 00:42:12;;;;;;;10.68;8.35;;;;;17.70;96645.00;;;;8415387;28;20231;-71
2022/09/06 00:46:19;;;;;;;12.20;8.27;;;;;17.50;96653.00;;;;8422299;28;20226;-71
2022/09/06 00:50:55;;;;;;;12.93;9.48;;;;;17.30;96649.00;;;;8425232;28;20223;-71
2022/09/06 00:54:59;;;;;;;14.85;10.30;;;;;17.20;96653.00;;;;8427365;28;20215;-71
2022/09/06 00:59:08;;;;;;;12.93;10.27;;;;;17.10;96639.00;;;;8430443;28;20307;-71
2022/09/06 01:03:19;;;;;;;17.90;12.20;;;;;17.00;96639.00;;;;8428099;28;20299;-71
2022/09/06 01:07:32;;;;;;;15.57;11.57;;;;;16.90;96648.00;;;;8422853;28;20325;-71
2022/09/06 01:12:10;;;;;;;19.10;13.50;;;;;16.80;96642.00;;;;8427554;28;20300;-71
2022/09/06 01:16:22;;;;;;;20.52;14.65;;;;;16.70;96645.00;;;;8428529;28;20298;-71
2022/09/06 01:20:58;;;;;;;24.38;14.10;;;;;16.70;96646.00;;;;8431826;28;20264;-71
2022/09/06 01:25:17;;;;;;;24.08;16.38;;;;;16.70;96649.00;;;;8431540;28;20304;-72
2022/09/06 01:29:28;;;;;;;25.67;16.92;;;;;16.60;96648.00;;;;8428946;28;20566;-72
2022/09/06 01:34:04;;;;;;;26.42;17.48;;;;;16.60;96654.00;;;;8427726;28;20226;-72
2022/09/06 01:38:16;;;;;;;20.33;15.35;;;;;16.60;96647.00;;;;8426671;28;20615;-73
2022/09/06 01:42:23;;;;;;;23.38;16.15;;;;;16.60;96644.00;;;;8426797;28;20226;-72
2022/09/06 01:46:56;;;;;;;24.00;16.23;;;;;16.50;96648.00;;;;8427044;28;20564;-71
2022/09/06 01:51:17;;;;;;;25.25;16.52;;;;;16.40;96643.00;;;;8425083;28;20234;-72
2022/09/06 01:55:44;;;;;;;22.33;15.60;;;;;16.30;96643.00;;;;8424791;28;20298;-72
2022/09/06 02:00:19;;;;;;;23.65;16.33;;;;;16.30;96642.00;;;;8424709;28;20622;-72
2022/09/06 02:04:28;;;;;;;26.20;17.00;;;;;16.30;96647.00;;;;8426297;28;20250;-72
2022/09/06 02:08:36;;;;;;;20.92;14.02;;;;;16.30;96652.00;;;;8425569;28;20230;-71
2022/09/06 02:12:43;;;;;;;17.52;11.57;;;;;16.20;96648.00;;;;8426032;28;20218;-72
2022/09/06 02:16:49;;;;;;;17.40;11.43;;;;;16.20;96647.00;;;;8419305;28;20722;-72
2022/09/06 02:21:06;;;;;;;17.08;12.55;;;;;16.10;96640.00;;;;8425045;28;20234;-72
2022/09/06 02:25:13;;;;;;;18.95;12.45;;;;;16.10;96627.00;;;;8426167;28;20252;-72
2022/09/06 02:29:17;;;;;;;20.27;14.02;;;;;16.10;96642.00;;;;8425246;28;20299;-69
2022/09/06 02:33:21;;;;;;;22.38;15.52;;;;;15.90;96640.00;;;;8426767;28;20211;-69
2022/09/06 02:37:27;;;;;;;24.08;15.45;;;;;15.80;96635.00;;;;8423000;28;20229;-69
2022/09/06 02:42:01;;;;;;;27.50;16.25;;;;;15.80;96643.00;;;;8424404;28;20227;-70
2022/09/06 02:46:05;;;;;;;27.70;17.13;;;;;15.80;96643.00;;;;8416767;27;20223;-70
2022/09/06 02:50:41;;;;;;;21.90;15.05;;;;;15.90;96630.00;;;;8441378;27;20234;-70
2022/09/06 02:54:54;;;;;;;24.75;16.65;;;;;15.90;96621.00;;;;8424153;27;20295;-70
2022/09/06 02:59:21;;;;;;;27.38;17.27;;;;;15.80;96622.00;;;;8427501;27;20225;-70
2022/09/06 03:03:26;;;;;;;25.15;16.63;;;;;15.70;96616.00;;;;8417618;28;20225;-70
2022/09/06 03:08:00;;;;;;;32.75;18.90;;;;;15.80;96611.00;;;;8423470;28;20219;-70
2022/09/06 03:12:36;;;;;;;23.75;15.77;;;;;15.70;96608.00;;;;8420641;28;20306;-69
2022/09/06 03:16:42;;;;;;;28.92;17.05;;;;;15.80;96612.00;;;;8421347;28;20227;-70
2022/09/06 03:21:18;;;;;;;21.83;14.57;;;;;15.70;96623.00;;;;8420535;28;20656;-70
2022/09/06 03:25:54;;;;;;;20.77;13.48;;;;;15.60;96613.00;;;;8423211;28;20215;-70
2022/09/06 03:29:57;;;;;;;21.40;14.05;;;;;15.60;96618.00;;;;8424418;28;20228;-71
2022/09/06 03:34:36;;;;;;;19.40;12.55;;;;;15.50;96610.00;;;;8416845;28;20218;-72
2022/09/06 03:38:49;;;;;;;20.48;14.43;;;;;15.50;96611.00;;;;8445927;27;20240;-70
2022/09/06 03:42:53;;;;;;;41.13;13.95;;;;;15.60;96617.00;;;;8423803;28;20273;-70
2022/09/06 03:46:56;;;;;;;20.45;13.93;;;;;15.70;96616.00;;;;8424062;28;20226;-70
2022/09/06 03:51:00;;;;;;;28.33;17.63;;;;;15.60;96616.00;;;;8421492;28;20226;-70
2022/09/06 03:55:04;;;;;;;28.70;18.00;;;;;15.50;96611.00;;;;8423655;28;20296;-71
2022/09/06 03:59:20;;;;;;;22.67;15.82;;;;;15.50;96604.00;;;;8405508;28;20227;-72
2022/09/06 04:04:09;;;;;;;29.98;18.52;;;;;15.50;96597.00;;;;8429586;28;20684;-71
2022/09/06 04:13:27;;;;;;;28.63;17.20;;;;;15.50;96591.00;;;;8410183;28;20724;-71
2022/09/06 04:18:13;;;;;;;27.20;17.10;;;;;15.50;96596.00;;;;8415405;28;20215;-72
2022/09/06 04:22:49;;;;;;;22.90;14.75;;;;;15.40;96603.00;;;;8408670;28;20243;-69
2022/09/06 04:27:28;;;;;;;25.58;15.27;;;;;15.30;96601.00;;;;8444312;27;20214;-70
2022/09/06 04:32:07;;;;;;;24.65;14.95;;;;;15.20;96608.00;;;;8422042;28;20281;-71
2022/09/06 04:36:12;;;;;;;21.98;14.77;;;;;15.20;96607.00;;;;8429225;28;20295;-70
2022/09/06 04:40:15;;;;;;;21.52;15.05;;;;;15.30;96606.00;;;;8413306;28;20214;-70
2022/09/06 04:44:19;;;;;;;27.67;16.50;;;;;15.40;96612.00;;;;8417304;28;20309;-70
2022/09/06 04:48:53;;;;;;;31.88;20.05;;;;;15.30;96615.00;;;;8425208;28;20229;-71
2022/09/06 04:53:30;;;;;;;34.00;19.48;;;;;15.30;96613.00;;;;8425808;28;20225;-71
2022/09/06 04:57:34;;;;;;;30.65;17.80;;;;;15.50;96607.00;;;;8426753;28;20219;-71
2022/09/06 05:01:38;;;;;;;21.95;13.55;;;;;15.40;96598.00;;;;8440264;27;20272;-70
2022/09/06 05:05:53;;;;;;;17.95;13.30;;;;;15.40;96609.00;;;;8432334;27;20675;-72
2022/09/06 05:09:56;;;;;;;20.80;13.25;;;;;15.40;96611.00;;;;8419876;27;20301;-71
2022/09/06 05:14:33;;;;;;;21.20;14.07;;;;;15.40;96608.00;;;;8415765;27;20219;-72
2022/09/06 05:18:38;;;;;;;31.33;16.27;;;;;15.50;96619.00;;;;8417756;28;20298;-70
2022/09/06 05:23:12;;;;;;;30.67;18.42;;;;;15.60;96615.00;;;;8417006;28;20744;-68
2022/09/06 05:27:15;;;;;;;28.83;18.48;;;;;15.80;96621.00;;;;8426459;28;20214;-69
2022/09/06 05:31:27;;;;;;;28.23;18.17;;;;;16.00;96619.00;;;;8426566;28;20236;-69
2022/09/06 05:35:31;;;;;;;27.30;17.75;;;;;16.30;96617.00;;;;8424855;28;20294;-69
2022/09/06 05:39:34;;;;;;;28.00;18.90;;;;;16.60;96613.00;;;;8427188;28;20238;-69
2022/09/06 05:43:38;;;;;;;34.38;20.90;;;;;16.90;96623.00;;;;8425627;28;20256;-69
2022/09/06 05:48:15;;;;;;;26.00;19.27;;;;;17.20;96626.00;;;;8425693;28;20223;-69
2022/09/06 05:52:25;;;;;;;21.02;15.13;;;;;17.40;96632.00;;;;8423461;28;20216;-69
2022/09/06 05:56:56;;;;;;;24.60;13.90;;;;;17.50;96631.00;;;;8443188;27;20320;-70
2022/09/06 06:01:33;;;;;;;19.13;13.18;;;;;17.60;96632.00;;;;8424996;28;20246;-70
2022/09/06 06:05:36;;;;;;;21.00;14.40;;;;;17.70;96638.00;;;;8440139;27;20219;-70
2022/09/06 06:10:19;;;;;;;17.48;12.48;;;;;17.80;96640.00;;;;8422784;28;20310;-70
2022/09/06 06:14:50;;;;;;;16.45;11.52;;;;;18.00;96628.00;;;;8425629;28;20302;-71
2022/09/06 06:18:54;;;;;;;17.63;13.27;;;;;18.10;96634.00;;;;8424062;28;20645;-70
2022/09/06 06:23:29;;;;;;;17.60;13.02;;;;;18.30;96639.00;;;;8423899;28;20219;-71
2022/09/06 06:27:35;;;;;;;16.67;13.30;;;;;18.70;96645.00;;;;8422020;28;20215;-70
2022/09/06 06:31:39;;;;;;;15.52;12.45;;;;;19.10;96646.00;;;;8425124;28;20577;-70
2022/09/06 06:36:13;;;;;;;16.13;12.65;;;;;19.60;96650.00;;;;8425891;28;20233;-70
2022/09/06 06:40:16;;;;;;;16.80;11.48;;;;;20.10;96650.00;;;;8422614;28;20721;-70
2022/09/06 06:44:21;;;;;;;15.77;11.40;;;;;20.40;96639.00;;;;8420551;28;20218;-70
2022/09/06 06:48:25;;;;;;;13.00;10.82;;;;;20.80;96646.00;;;;8424487;28;20246;-70
2022/09/06 06:52:57;;;;;;;14.38;11.20;;;;;21.10;96643.00;;;;8423313;28;20636;-71
2022/09/06 06:57:03;;;;;;;13.30;10.30;;;;;21.30;96648.00;;;;8426216;28;20211;-71
2022/09/06 07:01:38;;;;;;;13.45;9.68;;;;;21.40;96642.00;;;;8426466;28;20226;-71
2022/09/06 07:06:13;;;;;;;10.30;9.20;;;;;21.50;96648.00;;;;8427237;28;20257;-70
2022/09/06 07:10:16;;;;;;;14.75;8.40;;;;;21.80;96651.00;;;;8398878;28;20272;-71
2022/09/06 07:14:51;;;;;;;12.35;9.05;;;;;22.30;96658.00;;;;8419317;28;20294;-69
2022/09/06 07:18:55;;;;;;;11.70;8.90;;;;;22.70;96656.00;;;;8423733;28;20302;-69
2022/09/06 07:23:29;;;;;;;10.52;7.72;;;;;23.00;96659.00;;;;8412340;28;20309;-71
2022/09/06 07:28:06;;;;;;;8.27;7.45;;;;;23.60;96658.00;;;;8433199;27;20222;-71
2022/09/06 07:32:40;;;;;;;8.80;7.05;;;;;24.10;96656.00;;;;8421706;27;20299;-70
2022/09/06 07:36:44;;;;;;;9.68;7.50;;;;;24.50;96660.00;;;;8462125;27;20301;-70
2022/09/06 07:41:19;;;;;;;8.82;7.95;;;;;24.30;96661.00;;;;8415325;28;20261;-69
2022/09/06 07:50:38;;;;;;;11.35;7.78;;;;;24.20;96652.00;;;;8434962;28;20280;-70
2022/09/06 07:55:14;;;;;;;10.60;7.93;;;;;24.30;96643.00;;;;8421082;28;20219;-71
2022/09/06 07:59:48;;;;;;;8.82;7.20;;;;;24.40;96633.00;;;;8431079;28;20219;-70
2022/09/06 08:04:25;;;;;;;10.50;7.70;;;;;24.70;96636.00;;;;8429097;28;20235;-71
2022/09/06 08:09:02;;;;;;;8.57;7.72;;;;;24.90;96640.00;;;;8428618;28;20299;-69
2022/09/06 08:13:07;;;;;;;9.63;7.72;;;;;25.10;96646.00;;;;8429223;28;20219;-70
2022/09/06 08:17:10;;;;;;;11.25;8.45;;;;;25.90;96638.00;;;;8429095;28;20234;-70
2022/09/06 08:21:47;;;;;;;13.27;8.05;;;;;26.50;96638.00;;;;8430912;28;20306;-69
2022/09/06 08:26:24;;;;;;;13.65;7.95;;;;;27.00;96637.00;;;;8432998;28;20226;-69
2022/09/06 08:31:15;;;;;;;11.90;7.93;;;;;27.00;96633.00;;;;8432291;28;20303;-70
2022/09/06 08:35:20;;;;;;;12.23;8.13;;;;;26.20;96651.00;;;;8377213;28;20706;-70
2022/09/06 08:39:57;;;;;;;9.00;7.80;;;;;26.30;96651.00;;;;8428355;28;20315;-71
2022/09/06 08:44:05;;;;;;;8.48;7.57;;;;;27.20;96649.00;;;;8427651;28;20314;-72
2022/09/06 08:49:14;;;;;;;11.50;7.35;;;;;28.10;96642.00;;;;8427613;28;20521;-71
2022/09/06 08:53:57;;;;;;;8.90;7.00;;;;;28.60;96641.00;;;;8425335;28;20314;-72
2022/09/06 08:58:20;;;;;;;9.13;6.75;;;;;28.90;96637.00;;;;8428286;28;20215;-72
2022/09/06 09:02:23;;;;;;;7.25;6.55;;;;;29.30;96638.00;;;;8424077;28;20218;-72
2022/09/06 09:07:00;;;;;;;7.70;6.90;;;;;29.60;96639.00;;;;8424837;28;20223;-69
2022/09/06 09:11:39;;;;;;;7.45;6.43;;;;;29.80;96645.00;;;;8427248;28;20237;-70
2022/09/06 09:15:44;;;;;;;10.15;6.05;;;;;30.30;96649.00;;;;8428133;28;20227;-69
2022/09/06 09:20:18;;;;;;;7.25;5.80;;;;;30.60;96642.00;;;;8428565;28;20223;-69
2022/09/06 09:24:58;;;;;;;6.57;5.97;;;;;30.10;96644.00;;;;8424859;28;20219;-70
2022/09/06 09:29:49;;;;;;;6.88;5.57;;;;;29.90;96640.00;;;;8427580;28;20215;-70
2022/09/06 09:34:59;;;;;;;8.20;5.90;;;;;30.70;96645.00;;;;8425996;28;20248;-71
2022/09/06 09:39:38;;;;;;;6.43;5.93;;;;;31.20;96640.00;;;;8424325;28;20245;-70
2022/09/06 09:43:43;;;;;;;6.75;6.05;;;;;31.30;96646.00;;;;8424879;28;20292;-71
2022/09/06 09:48:25;;;;;;;10.48;7.32;;;;;31.30;96635.00;;;;8424189;28;20251;-70
2022/09/06 09:53:06;;;;;;;7.55;5.93;;;;;31.20;96622.00;;;;8422049;28;20219;-70
2022/09/06 09:57:11;;;;;;;8.40;6.30;;;;;31.20;96614.00;;;;8424490;28;20294;-71
2022/09/06 10:01:46;;;;;;;13.85;6.60;;;;;31.30;96604.00;;;;8422337;28;20710;-71
2022/09/06 10:05:59;;;;;;;7.55;5.60;;;;;31.70;96602.00;;;;8423922;28;20227;-70
2022/09/06 10:10:28;;;;;;;9.32;6.18;;;;;32.00;96593.00;;;;8426747;28;20272;-70
2022/09/06 10:14:39;;;;;;;7.15;6.45;;;;;32.30;96598.00;;;;8421261;28;20302;-72
2022/09/06 10:18:44;;;;;;;9.48;6.13;;;;;32.40;96594.00;;;;8415095;28;20223;-69
2022/09/06 10:22:55;;;;;;;6.10;5.50;;;;;32.50;96593.00;;;;8426519;28;20555;-70
2022/09/06 10:27:25;;;;;;;6.65;5.50;;;;;32.40;96587.00;;;;8426007;28;20254;-69
2022/09/06 10:31:51;;;;;;;6.97;5.65;;;;;32.60;96585.00;;;;8422984;28;20242;-70
2022/09/06 10:35:57;;;;;;;6.28;5.55;;;;;32.60;96583.00;;;;8426686;28;20231;-69
2022/09/06 10:40:07;;;;;;;9.18;5.45;;;;;32.60;96573.00;;;;8425648;28;20662;-70
2022/09/06 10:44:29;;;;;;;6.63;4.75;;;;;32.80;96573.00;;;;8424312;28;20223;-70
2022/09/06 10:48:35;;;;;;;6.05;5.20;;;;;33.00;96584.00;;;;8425660;28;20298;-70
2022/09/06 10:52:44;;;;;;;5.30;4.80;;;;;33.10;96578.00;;;;8423583;28;20215;-69
2022/09/06 10:56:54;;;;;;;3.30;3.10;;;;;33.30;96571.00;;;;8424741;28;20306;-69
2022/09/06 11:01:27;;;;;;;3.22;3.00;;;;;33.10;96569.00;;;;8428741;28;20245;-69
2022/09/06 11:05:35;;;;;;;3.40;3.10;;;;;32.80;96565.00;;;;8427916;28;20223;-69
2022/09/06 11:09:44;;;;;;;4.38;3.67;;;;;32.30;96565.00;;;;8425668;28;20223;-70
2022/09/06 11:13:49;;;;;;;6.03;3.55;;;;;32.10;96557.00;;;;8425174;28;20223;-69
2022/09/06 11:17:57;;;;;;;3.83;3.58;;;;;32.30;96560.00;;;;8423570;28;20253;-69
2022/09/06 11:22:27;;;;;;;4.20;3.83;;;;;32.60;96553.00;;;;8424343;28;20225;-69
2022/09/06 11:27:05;;;;;;;4.30;3.42;;;;;32.70;96552.00;;;;8424327;28;20231;-69
2022/09/06 11:31:13;;;;;;;12.63;4.03;;;;;32.80;96543.00;;;;8423026;28;20612;-69
2022/09/06 11:35:45;;;;;;;6.50;3.30;;;;;32.70;96554.00;;;;8423832;28;20615;-69
2022/09/06 11:40:13;;;;;;;3.13;2.70;;;;;32.40;96532.00;;;;8424677;28;20301;-69
2022/09/06 11:44:51;;;;;;;3.67;2.88;;;;;32.30;96536.00;;;;8423780;28;20318;-69
2022/09/06 11:49:05;;;;;;;4.88;3.17;;;;;32.10;96527.00;;;;8423793;28;20225;-69
2022/09/06 11:53:20;;;;;;;3.08;2.88;;;;;31.60;96519.00;;;;8423513;28;20219;-69
2022/09/06 11:57:26;;;;;;;4.45;2.72;;;;;31.60;96507.00;;;;8423291;28;20302;-69
2022/09/06 12:01:37;;;;;;;3.15;2.58;;;;;31.50;96526.00;;;;8424073;28;20294;-69
2022/09/06 12:06:15;;;;;;;3.10;2.53;;;;;31.10;96510.00;;;;8424205;28;20310;-70
2022/09/06 12:10:55;;;;;;;4.82;2.70;;;;;30.90;96511.00;;;;8422163;28;20709;-69
2022/09/06 12:15:25;;;;;;;3.10;2.80;;;;;30.90;96499.00;;;;8423310;28;20250;-69
2022/09/06 12:19:44;;;;;;;4.78;2.88;;;;;31.00;96497.00;;;;8415576;28;20668;-69
2022/09/06 12:23:48;;;;;;;5.75;2.97;;;;;31.20;96500.00;;;;8411808;28;20219;-69
2022/09/06 12:27:55;;;;;;;3.63;2.60;;;;;31.30;96500.00;;;;8421718;28;20219;-69
2022/09/06 12:32:27;;;;;;;3.35;2.50;;;;;31.50;96492.00;;;;8415778;28;20223;-68
2022/09/06 12:36:31;;;;;;;3.47;3.03;;;;;31.40;96492.00;;;;8419862;28;20220;-69
2022/09/06 12:41:07;;;;;;;4.05;2.70;;;;;31.40;96487.00;;;;8419712;28;20223;-69
2022/09/06 12:45:13;;;;;;;4.60;3.10;;;;;31.50;96480.00;;;;8427813;28;20222;-69
2022/09/06 12:50:03;;;;;;;4.72;2.85;;;;;31.30;96477.00;;;;8425580;28;20207;-69
2022/09/06 12:54:23;;;;;;;7.93;2.47;;;;;31.40;96477.00;;;;8428159;28;21119;-69
2022/09/06 12:59:13;;;;;;;4.72;2.85;;;;;31.60;96464.00;;;;8427902;28;20687;-69
2022/09/06 13:03:26;;;;;;;3.22;2.80;;;;;31.60;96470.00;;;;8402990;28;20704;-69
2022/09/06 13:07:53;;;;;;;3.65;2.88;;;;;31.30;96468.00;;;;8427976;28;20575;-69
2022/09/06 13:12:28;;;;;;;6.30;2.70;;;;;31.20;96462.00;;;;8429533;28;20218;-69
2022/09/06 13:16:38;;;;;;;4.60;2.60;;;;;31.20;96455.00;;;;8427597;28;20222;-68
2022/09/06 13:21:24;;;;;;;7.30;2.65;;;;;31.50;96450.00;;;;8429651;28;20284;-68
2022/09/06 13:25:27;;;;;;;5.72;2.70;;;;;31.50;96460.00;;;;8424814;28;20306;-68
2022/09/06 13:30:05;;;;;;;5.05;2.60;;;;;31.30;96456.00;;;;8426752;28;20215;-68
2022/09/06 13:34:08;;;;;;;9.18;2.78;;;;;31.00;96449.00;;;;8428180;28;20264;-69
2022/09/06 13:38:41;;;;;;;5.03;2.78;;;;;31.10;96452.00;;;;8428252;28;20223;-68
2022/09/06 13:42:44;;;;;;;5.30;3.08;;;;;31.70;96448.00;;;;8418238;28;20672;-69
2022/09/06 13:47:21;;;;;;;4.47;2.78;;;;;31.90;96450.00;;;;8429316;28;20227;-67
2022/09/06 13:51:59;;;;;;;6.68;2.80;;;;;31.90;96442.00;;;;8430346;28;20298;-68
2022/09/06 13:56:07;;;;;;;7.97;3.22;;;;;32.00;96436.00;;;;8429008;28;20313;-69
2022/09/06 14:00:39;;;;;;;6.55;2.90;;;;;31.90;96430.00;;;;8421750;28;20238;-68
2022/09/06 14:05:19;;;;;;;4.10;2.70;;;;;32.00;96435.00;;;;8425439;28;20230;-69
2022/09/06 14:09:53;;;;;;;5.40;2.83;;;;;31.90;96437.00;;;;8424287;28;20223;-68
2022/09/06 14:13:58;;;;;;;8.60;2.75;;;;;32.10;96433.00;;;;8425911;28;20230;-69
2022/09/06 14:18:02;;;;;;;6.22;2.67;;;;;32.20;96435.00;;;;8424333;28;20519;-68
2022/09/06 14:22:39;;;;;;;7.38;3.25;;;;;32.20;96437.00;;;;8423240;28;23775;-68
2022/09/06 14:27:13;;;;;;;6.47;2.72;;;;;32.20;96437.00;;;;8423172;28;20260;-69
2022/09/06 14:31:53;;;;;;;5.28;2.50;;;;;32.10;96429.00;;;;8424083;28;20306;-69
2022/09/06 14:36:30;;;;;;;12.15;2.95;;;;;32.30;96422.00;;;;8425172;28;20223;-68
2022/09/06 14:41:05;;;;;;;5.53;2.72;;;;;32.50;96408.00;;;;8426362;28;20533;-68
2022/09/06 14:45:10;;;;;;;4.70;3.53;;;;;33.10;96410.00;;;;8417106;28;20229;-69
2022/09/06 14:49:48;;;;;;;7.32;2.85;;;;;33.50;96404.00;;;;8420436;28;20356;-68
2022/09/06 14:54:20;;;;;;;4.40;2.47;;;;;33.00;96408.00;;;;8419614;28;20253;-67
2022/09/06 14:58:58;;;;;;;5.15;2.50;;;;;32.10;96408.00;;;;8410216;28;20219;-66
2022/09/06 15:03:33;;;;;;;8.95;3.05;;;;;31.60;96393.00;;;;8400855;28;20220;-67
2022/09/06 15:08:09;;;;;;;6.38;2.90;;;;;31.40;96395.00;;;;8417380;28;20225;-67
2022/09/06 15:12:46;;;;;;;8.23;3.25;;;;;31.70;96390.00;;;;8418000;28;20602;-67
2022/09/06 15:17:20;;;;;;;4.95;2.75;;;;;32.30;96384.00;;;;8420213;28;20219;-66
2022/09/06 15:21:24;;;;;;;6.57;2.58;;;;;32.50;96381.00;;;;8420035;28;20219;-68
2022/09/06 15:25:29;;;;;;;8.85;2.70;;;;;32.20;96389.00;;;;8440760;27;20327;-66
2022/09/06 15:30:08;;;;;;;4.25;2.60;;;;;32.00;96387.00;;;;8420845;28;20211;-67
2022/09/06 15:34:52;;;;;;;5.57;2.42;;;;;32.10;96371.00;;;;8411802;28;20229;-66
2022/09/06 15:39:26;;;;;;;5.70;2.38;;;;;32.20;96363.00;;;;8413129;28;20225;-67
2022/09/06 15:43:32;;;;;;;3.10;2.53;;;;;32.10;96365.00;;;;8416624;28;20215;-67
2022/09/06 15:47:54;;;;;;;4.63;2.50;;;;;32.20;96367.00;;;;8434438;28;20225;-67
2022/09/06 15:51:59;;;;;;;4.95;2.42;;;;;32.50;96368.00;;;;8431926;28;20219;-67
2022/09/06 15:56:33;;;;;;;2.80;2.42;;;;;32.30;96367.00;;;;8427232;28;20219;-68
2022/09/06 16:00:44;;;;;;;3.13;2.38;;;;;32.00;96362.00;;;;8422259;28;20301;-68
2022/09/06 16:04:47;;;;;;;5.15;2.20;;;;;31.70;96364.00;;;;8443682;28;20222;-67
2022/09/06 16:09:24;;;;;;;3.58;2.20;;;;;31.50;96357.00;;;;8422942;28;20661;-68
2022/09/06 16:13:35;;;;;;;8.55;2.40;;;;;31.30;96356.00;;;;8423241;28;20260;-67
2022/09/06 16:17:46;;;;;;;3.55;2.50;;;;;31.30;96359.00;;;;8429934;28;20219;-68
2022/09/06 16:21:50;;;;;;;4.40;2.30;;;;;31.60;96358.00;;;;8430342;28;20223;-67
2022/09/06 16:25:54;;;;;;;7.80;2.40;;;;;31.50;96352.00;;;;8429013;28;20366;-68
2022/09/06 16:30:31;;;;;;;7.80;3.05;;;;;31.20;96348.00;;;;8430530;28;20302;-67
2022/09/06 16:35:09;;;;;;;6.65;2.80;;;;;30.80;96347.00;;;;8428398;28;20215;-68
2022/09/06 16:39:46;;;;;;;5.03;2.97;;;;;30.40;96341.00;;;;8426662;28;20219;-67
2022/09/06 16:44:20;;;;;;;7.00;2.40;;;;;30.20;96342.00;;;;8433799;27;20574;-66
2022/09/06 16:49:00;;;;;;;4.80;2.42;;;;;30.10;96338.00;;;;8449475;27;20232;-68
2022/09/06 16:53:15;;;;;;;9.70;3.13;;;;;30.00;96329.00;;;;8420184;28;20223;-67
2022/09/06 16:57:48;;;;;;;9.77;3.45;;;;;29.90;96332.00;;;;8427328;28;20250;-67
2022/09/06 17:02:30;;;;;;;4.68;2.83;;;;;29.70;96335.00;;;;8420086;28;20326;-67
2022/09/06 17:07:02;;;;;;;8.75;2.85;;;;;29.40;96335.00;;;;8385041;28;20219;-68
2022/09/06 17:11:41;;;;;;;6.88;2.85;;;;;29.20;96333.00;;;;8426858;28;20212;-67
2022/09/06 17:20:56;;;;;;;6.32;3.25;;;;;28.50;96315.00;;;;8406783;27;20214;-68
2022/09/06 17:25:31;;;;;;;22.63;3.67;;;;;28.00;96328.00;;;;8433907;27;20241;-68
2022/09/06 17:30:11;;;;;;;22.20;4.07;;;;;27.30;96325.00;;;;8413169;28;20302;-68
2022/09/06 17:34:23;;;;;;;27.35;5.35;;;;;26.80;96322.00;;;;8419204;28;20211;-70
2022/09/06 17:39:01;;;;;;;25.73;3.85;;;;;26.20;96322.00;;;;8421862;28;20556;-68
2022/09/06 17:43:38;;;;;;;24.95;4.63;;;;;25.70;96325.00;;;;8422792;28;20242;-68
2022/09/06 17:52:58;;;;;;;12.32;3.90;;;;;24.80;96333.00;;;;8425098;28;20245;-68
2022/09/06 17:57:33;;;;;;;12.55;3.55;;;;;24.50;96339.00;;;;8410083;28;20290;-68
2022/09/06 18:02:13;;;;;;;8.85;3.80;;;;;24.10;96333.00;;;;8419964;28;20215;-67
2022/09/06 18:06:46;;;;;;;17.60;4.18;;;;;23.70;96348.00;;;;8417823;28;20223;-68
2022/09/06 18:11:26;;;;;;;9.32;3.80;;;;;23.50;96345.00;;;;8426918;28;20215;-67
2022/09/06 18:16:02;;;;;;;9.75;3.55;;;;;23.10;96355.00;;;;8425686;28;20239;-68
2022/09/06 18:20:36;;;;;;;7.68;3.65;;;;;22.80;96357.00;;;;8429555;28;20223;-68
2022/09/06 18:25:10;;;;;;;6.00;3.80;;;;;22.60;96355.00;;;;8416476;28;20261;-68
2022/09/06 18:29:51;;;;;;;11.23;3.97;;;;;22.40;96363.00;;;;8414880;28;20317;-69
2022/09/06 18:34:25;;;;;;;10.98;3.70;;;;;22.10;96373.00;;;;8424664;28;20550;-66
2022/09/06 18:39:03;;;;;;;14.00;4.10;;;;;22.00;96368.00;;;;8423255;28;20710;-67
2022/09/06 18:43:39;;;;;;;10.70;3.80;;;;;21.80;96366.00;;;;8423743;28;20223;-67
2022/09/06 18:52:59;;;;;;;9.45;3.97;;;;;21.60;96362.00;;;;8418907;28;20218;-66
2022/09/06 18:57:35;;;;;;;9.98;4.50;;;;;21.40;96366.00;;;;8422693;28;20310;-66
2022/09/06 19:02:12;;;;;;;18.42;4.63;;;;;21.30;96362.00;;;;8420917;28;20298;-66
2022/09/06 19:06:50;;;;;;;11.52;4.07;;;;;21.10;96380.00;;;;8424209;28;20219;-69
2022/09/06 19:11:26;;;;;;;7.97;3.95;;;;;21.00;96375.00;;;;8424062;28;20250;-64
2022/09/06 19:16:01;;;;;;;6.63;3.90;;;;;20.90;96373.00;;;;8423084;28;20601;-64
2022/09/06 19:20:41;;;;;;;12.93;4.47;;;;;20.90;96375.00;;;;8414890;28;20222;-65
2022/09/06 19:24:58;;;;;;;11.75;4.57;;;;;20.70;96373.00;;;;8420560;28;20643;-66
2022/09/06 19:29:33;;;;;;;11.02;4.18;;;;;20.50;96381.00;;;;8420183;28;20276;-66
2022/09/06 19:34:14;;;;;;;8.30;4.60;;;;;20.40;96376.00;;;;8422724;28;20297;-65
2022/09/06 19:38:45;;;;;;;10.80;4.57;;;;;20.30;96365.00;;;;8423413;28;20280;-65
2022/09/06 19:43:20;;;;;;;6.15;4.65;;;;;20.10;96360.00;;;;8422065;28;20210;-65
2022/09/06 19:52:40;;;;;;;14.32;5.88;;;;;19.90;96351.00;;;;8410808;28;20276;-65
2022/09/06 19:56:44;;;;;;;11.13;5.88;;;;;19.80;96353.00;;;;8435169;28;20281;-65
2022/09/06 20:01:18;;;;;;;9.55;6.10;;;;;19.80;96356.00;;;;8421867;28;20310;-65
2022/09/06 20:05:57;;;;;;;11.77;4.93;;;;;19.70;96353.00;;;;8434678;28;20259;-68
2022/09/06 20:10:39;;;;;;;8.52;5.30;;;;;19.70;96347.00;;;;8418225;28;20227;-69
2022/09/06 20:14:42;;;;;;;11.98;5.30;;;;;19.80;96345.00;;;;8422755;28;20222;-69
2022/09/06 20:18:45;;;;;;;11.95;4.63;;;;;19.70;96342.00;;;;8422916;28;20636;-69
2022/09/06 20:23:20;;;;;;;13.93;5.25;;;;;19.60;96337.00;;;;8424123;28;20575;-69
2022/09/06 20:27:58;;;;;;;8.43;4.88;;;;;19.60;96330.00;;;;8421357;28;20556;-69
2022/09/06 20:32:04;;;;;;;9.45;4.57;;;;;19.50;96325.00;;;;8423892;28;20211;-69
2022/09/06 20:36:38;;;;;;;9.95;5.20;;;;;19.50;96323.00;;;;8421999;28;20513;-69
2022/09/06 20:40:41;;;;;;;10.43;4.60;;;;;19.40;96316.00;;;;8422771;28;20227;-69
2022/09/06 20:45:21;;;;;;;8.20;4.68;;;;;19.50;96312.00;;;;8420422;28;20672;-68
2022/09/06 20:49:56;;;;;;;20.08;5.22;;;;;19.50;96313.00;;;;8392052;28;20232;-69
2022/09/06 20:54:31;;;;;;;9.30;5.00;;;;;19.50;96313.00;;;;8391033;28;20556;-69
2022/09/06 20:59:09;;;;;;;19.45;5.85;;;;;19.40;96303.00;;;;8387495;28;20223;-69
2022/09/06 21:03:12;;;;;;;12.60;5.47;;;;;19.40;96308.00;;;;8393283;28;20243;-69
2022/09/06 21:08:03;;;;;;;9.63;5.30;;;;;19.40;96307.00;;;;8394735;28;20289;-69
2022/09/06 21:12:27;;;;;;;8.95;5.40;;;;;19.30;96303.00;;;;8392245;28;20212;-69
2022/09/06 21:17:04;;;;;;;11.27;4.82;;;;;19.30;96300.00;;;;8393424;28;20665;-69
2022/09/06 21:21:41;;;;;;;19.02;4.68;;;;;19.20;96316.00;;;;8394898;28;20225;-70
2022/09/06 21:25:53;;;;;;;11.77;5.63;;;;;19.10;96315.00;;;;8392785;28;20308;-69
2022/09/06 21:30:25;;;;;;;11.48;5.75;;;;;19.00;96313.00;;;;8393933;28;20311;-69
2022/09/06 21:34:28;;;;;;;13.95;5.80;;;;;18.90;96313.00;;;;8392951;28;20218;-69
2022/09/06 21:38:33;;;;;;;12.50;5.80;;;;;18.90;96311.00;;;;8392172;28;20231;-69
2022/09/06 21:42:38;;;;;;;11.85;5.50;;;;;18.80;96315.00;;;;8393996;28;20647;-69
2022/09/06 21:46:44;;;;;;;6.70;4.82;;;;;18.80;96320.00;;;;8404145;28;20227;-69
2022/09/06 21:50:48;;;;;;;9.95;5.65;;;;;18.70;96317.00;;;;8426041;28;20227;-69
2022/09/06 21:54:51;;;;;;;13.77;5.93;;;;;18.70;96317.00;;;;8426941;28;20219;-68
2022/09/06 21:58:57;;;;;;;12.98;6.05;;;;;18.70;96308.00;;;;8427324;28;20322;-69
2022/09/06 22:03:00;;;;;;;9.50;5.75;;;;;18.70;96312.00;;;;8424929;28;20243;-69
2022/09/06 22:07:40;;;;;;;10.00;5.90;;;;;18.60;96313.00;;;;8424103;28;20303;-69
2022/09/06 22:11:46;;;;;;;9.30;4.93;;;;;18.60;96323.00;;;;8424941;28;20215;-69
2022/09/06 22:16:25;;;;;;;8.82;5.32;;;;;18.60;96315.00;;;;8418338;28;20661;-69